Mount Pocono, Pennsylvania
Current Conditions -  °F | °C
As of 11:53 PM on Saturday 22 Nov 2014 (Local Time) from KMPO Reporting Station
Few Clouds Few Clouds  
Wind Chill: 32°   Ceiling: Unl
Heat Index: 39°   Visibility: 10mi
Dew Point: 16°   Wind: 12mph
Humidity: 39%   Direction: 250°WSW
Pressure: 30.12"   Gusts: NA
Location:  41.12°N, 75.36°W
Report Text: KMPO 230453Z AUTO 25010KT 10SM FEW090 04/M09 A3012 RMK AO2 SLP214 T00391089 400391100
Loading
Personal Weather Stations






























Interactive Weather Map New forecast layout! Learn more

10-Day Weather Forecast

Advertisements
Track Severe Weather on mobile